Rockcliffe Park, Ontario

1:23 PM EST on February 25, 2017 (GMT -0500)
District de Pointe Gatineau | | Change Station

Elev 192 ft 45.48 °N, 75.68 °W | Updated 60 seconds ago

Rain
Rain
35.9 °F
Feels Like 36 °F
N
1.0
Wind Variable Wind from SSE

Today
High -- | Low -- °F
--% Chance of Precip.
Yesterday
High -- | Low -- °F
Precip. -- in
Pressure 29.39 in
Visibility 3.0 miles
Clouds Mostly Cloudy 300 ft
Overcast 1000 ft
Windchill 36 °F
Dew Point 35 °F
Humidity 98%
Rainfall 0.25 in
Snow Depth Not available.
6:47 AM 5:44 PM
Waning Crescent, 1% visible
SPECI CYOW 251819Z 31003KT 3SM -RA BR BKN003 OVC010 02/01 A2937 RMK FG1SF4SC3 PRESFR SLP953
Pressure 29.39 in
Visibility 3.0 miles
Clouds Mostly Cloudy 300 ft
Overcast 1000 ft
Windchill 36 °F
Dew Point 35 °F
Humidity 98%
Rainfall 0.25 in
Snow Depth Not available.
6:47 AM 5:44 PM
Waning Crescent, 1% visible
SPECI CYOW 251819Z 31003KT 3SM -RA BR BKN003 OVC010 02/01 A2937 RMK FG1SF4SC3 PRESFR SLP953

Get Your Daily Forecast Email!

Thanks for signing up!

Be on the lookout for a verification email in your inbox.

You'll start receiving the daily forecast at 8 AM.

×

10-Day Weather Forecast

Almanac

Astronomy

Feb. 25, 2017 Rise Set
Actual Time
Civil Twilight
Nautical Twilight
Astronomical Twilight
Moon
Length of Visible Light
Length of Day
Tomorrow will be .
, % of the Moon is Illuminated

Today's Extremes

Country Highs Country Lows

Community

WunderPhotos

Upload Photos

1,962,540 photos uploaded!

WunderBlog® & News

Nearby

Air Quality

  Air Quality AQ Index Pollutant
Not available.

Snow Depth

Station Depth Elevation

Earthquake Activity

City Distance Mag. Time & Date
Minimum magnitude displayed is 2.5.

Coastal Water Temperatures

Place Temperature

Stations

Nearby Weather Stations

Station Location Temp. Windchill Dew Point Humidity Wind Precip. Elev Updated Type
                   

Watches & Warnings

There are currently no watches in effect.